Terminal Aerodrome Forecast
Issued by NWS San Angelo, TX

Home | Current Version | Previous Version | Text Only | Print | Product List | Glossary On
Versions: 1 2 3 4 5 6 7 8 9 10 11 12 13 14 15 16 17
000
FTUS44 KSJT 300500 AAA
TAFSJT
TAF AMD
KSJT 300532Z 3006/0106 09015G25KT P6SM -TSRA OVC050CB
      TEMPO 3006/3007 2SM -TSRA BKN025CB
     FM300700 18006KT P6SM SCT080
     FM302000 15008G16KT P6SM FEW250
     FM302300 15008KT P6SM SKC=

USA.gov is the U.S. government's official web portal to all federal, state and local government web resources and services.